Time;durP1;ratioP1;P1;durP2;ratioP2;P2;SDS_P1;SDS_P2;PMS_P1;PMS_P2;Temp;Humidity;BMP_temperature;BMP_pressure;BME280_temperature;BME280_humidity;BME280_pressure;Samples;Min_cycle;Max_cycle;Signal;HPM_P1;HPM_P2
2022/06/14 00:01:12;;;;;;;1.70;1.60;;;22.10;63.70;;;;;;4998211;28;20197;-69
2022/06/14 00:03:43;;;;;;;2.33;1.50;;;22.20;63.80;;;;;;5027097;28;20246;-69
2022/06/14 00:06:18;;;;;;;1.83;1.63;;;22.10;63.70;;;;;;5017795;28;20710;-69
2022/06/14 00:08:45;;;;;;;1.83;1.45;;;22.10;63.70;;;;;;5019144;28;20290;-70
2022/06/14 00:11:23;;;;;;;1.60;1.50;;;22.10;63.80;;;;;;5019305;28;20285;-70
2022/06/14 00:13:50;;;;;;;1.67;1.20;;;22.10;63.70;;;;;;5021716;28;20171;-70
2022/06/14 00:16:17;;;;;;;1.38;1.27;;;22.10;63.80;;;;;;4998055;28;20177;-70
2022/06/14 00:18:42;;;;;;;1.58;1.40;;;22.10;63.80;;;;;;4981204;28;20208;-69
2022/06/14 00:21:09;;;;;;;1.50;1.40;;;22.10;64.00;;;;;;4996959;28;20192;-70
2022/06/14 00:23:36;;;;;;;1.40;1.30;;;22.10;63.80;;;;;;4981674;28;20192;-70
2022/06/14 00:26:03;;;;;;;1.40;1.30;;;22.10;63.80;;;;;;4997789;28;20192;-70
2022/06/14 00:28:32;;;;;;;1.50;1.40;;;22.10;63.80;;;;;;4981153;28;20216;-69
2022/06/14 00:31:07;;;;;;;2.35;1.38;;;22.10;63.80;;;;;;4980887;28;20217;-69
2022/06/14 00:33:33;;;;;;;2.53;1.63;;;22.10;63.80;;;;;;4981142;28;20220;-70
2022/06/14 00:36:17;;;;;;;1.48;1.38;;;22.10;63.80;;;;;;4995116;28;20196;-70
2022/06/14 00:38:43;;;;;;;1.90;1.75;;;22.10;63.70;;;;;;4995684;28;20219;-69
2022/06/14 00:41:26;;;;;;;2.35;1.63;;;22.10;64.50;;;;;;4979233;28;20177;-69
2022/06/14 00:43:51;;;;;;;1.45;1.35;;;22.10;63.60;;;;;;4979826;28;20188;-69
2022/06/14 00:46:40;;;;;;;1.30;1.20;;;22.10;63.70;;;;;;4979763;28;20216;-70
2022/06/14 00:49:17;;;;;;;1.55;1.45;;;22.10;63.70;;;;;;4978892;28;20250;-69
2022/06/14 00:51:58;;;;;;;1.75;1.33;;;22.10;63.70;;;;;;4978955;28;20240;-70
2022/06/14 00:54:32;;;;;;;1.58;1.48;;;22.10;63.70;;;;;;4996547;28;20183;-69
2022/06/14 00:57:13;;;;;;;2.20;1.77;;;22.10;63.70;;;;;;4995198;28;20193;-70
2022/06/14 00:59:48;;;;;;;1.60;1.50;;;22.10;63.70;;;;;;4995508;28;20204;-70
2022/06/14 01:02:21;;;;;;;1.75;1.65;;;22.10;63.70;;;;;;4994835;28;20188;-70
2022/06/14 01:04:48;;;;;;;1.77;1.50;;;22.10;63.60;;;;;;4996912;28;20223;-69
2022/06/14 01:07:20;;;;;;;1.65;1.52;;;22.10;63.70;;;;;;4996862;28;20322;-69
2022/06/14 01:09:53;;;;;;;1.52;1.42;;;22.10;63.60;;;;;;4980779;28;20212;-70
2022/06/14 01:12:29;;;;;;;1.77;1.67;;;22.10;63.60;;;;;;4996932;28;20698;-69
2022/06/14 01:15:16;;;;;;;1.60;1.50;;;22.10;63.70;;;;;;4997174;28;20180;-70
2022/06/14 01:17:58;;;;;;;2.58;1.50;;;22.10;63.60;;;;;;4980626;28;20195;-70
2022/06/14 01:20:25;;;;;;;1.88;1.30;;;22.00;63.50;;;;;;4996199;28;20172;-70
2022/06/14 01:22:53;;;;;;;1.88;1.48;;;22.00;63.50;;;;;;4995078;28;20236;-70
2022/06/14 01:25:21;;;;;;;2.03;1.75;;;22.00;63.50;;;;;;4997059;28;20660;-70
2022/06/14 01:27:47;;;;;;;1.90;1.63;;;22.00;63.50;;;;;;4995947;28;20184;-70
2022/06/14 01:30:24;;;;;;;2.03;1.60;;;22.00;63.40;;;;;;4995936;28;20215;-70
2022/06/14 01:33:26;;;;;;;1.63;1.33;;;22.00;63.50;;;;;;4995386;28;20284;-69
2022/06/14 01:36:02;;;;;;;1.70;1.38;;;22.00;63.50;;;;;;4990741;28;20689;-69
2022/06/14 01:38:29;;;;;;;1.58;1.48;;;22.10;63.60;;;;;;4995895;28;20215;-69
2022/06/14 01:41:32;;;;;;;1.50;1.40;;;22.00;63.50;;;;;;4995249;28;20184;-70
2022/06/14 01:44:24;;;;;;;1.52;1.42;;;22.00;63.50;;;;;;4997658;28;20188;-70
2022/06/14 01:47:12;;;;;;;1.50;1.40;;;22.00;63.50;;;;;;4979308;28;20185;-70
2022/06/14 01:54:14;;;;;;;1.80;1.70;;;22.00;63.50;;;;;;4996023;28;20816;-70
2022/06/14 01:56:58;;;;;;;2.63;1.42;;;22.00;63.40;;;;;;4938160;29;20198;-70
2022/06/14 01:59:46;;;;;;;1.63;1.52;;;22.00;63.40;;;;;;4994312;28;20213;-69
2022/06/14 02:04:37;;;;;;;1.50;1.40;;;22.00;63.40;;;;;;4993535;28;20188;-69
2022/06/14 02:06:03;;;;;;;1.60;1.50;;;22.00;63.40;;;;;;4994802;28;20197;-70
2022/06/14 02:08:37;;;;;;;1.55;1.45;;;22.00;63.40;;;;;;4999014;28;20205;-69
2022/06/14 02:11:14;;;;;;;1.50;1.40;;;22.00;63.40;;;;;;4997938;28;20216;-69
2022/06/14 02:13:53;;;;;;;2.38;1.60;;;22.00;63.30;;;;;;4998948;28;20185;-70
2022/06/14 02:16:47;;;;;;;1.55;1.45;;;22.00;63.40;;;;;;5000296;28;20264;-70
2022/06/14 02:19:27;;;;;;;1.98;1.80;;;22.00;63.40;;;;;;5000037;28;20236;-70
2022/06/14 02:22:02;;;;;;;1.48;1.38;;;22.00;63.20;;;;;;4997230;28;20181;-69
2022/06/14 02:24:38;;;;;;;2.13;1.70;;;22.00;63.30;;;;;;4996781;28;20189;-69
2022/06/14 02:27:16;;;;;;;1.67;1.40;;;21.90;63.20;;;;;;4963917;28;20201;-70
2022/06/14 02:29:52;;;;;;;1.48;1.38;;;21.90;63.20;;;;;;4979736;28;20259;-70
2022/06/14 02:32:26;;;;;;;1.40;1.30;;;22.00;63.30;;;;;;4978559;28;20449;-70
2022/06/14 02:35:03;;;;;;;1.40;1.30;;;22.00;63.40;;;;;;4978834;28;20189;-70
2022/06/14 02:37:51;;;;;;;1.50;1.40;;;22.00;63.30;;;;;;4961156;28;20181;-70
2022/06/14 02:40:37;;;;;;;1.63;1.52;;;21.90;63.20;;;;;;4977504;28;20261;-70
2022/06/14 02:43:23;;;;;;;1.52;1.42;;;21.90;63.00;;;;;;4961171;28;20221;-70
2022/06/14 02:45:59;;;;;;;1.60;1.50;;;22.00;63.20;;;;;;4962072;28;20613;-69
2022/06/14 02:48:48;;;;;;;1.50;1.40;;;21.90;63.20;;;;;;4962829;28;20232;-70
2022/06/14 02:51:36;;;;;;;1.48;1.27;;;22.00;63.30;;;;;;4962195;28;20221;-69
2022/06/14 02:54:15;;;;;;;1.67;1.55;;;22.00;63.10;;;;;;4979882;28;20197;-70
2022/06/14 02:56:49;;;;;;;1.77;1.40;;;21.90;63.00;;;;;;4979301;28;20221;-70
2022/06/14 02:59:56;;;;;;;1.70;1.60;;;22.00;63.10;;;;;;4983872;28;20232;-70
2022/06/14 03:02:35;;;;;;;1.38;1.30;;;21.90;63.00;;;;;;5008798;28;20233;-70
2022/06/14 03:05:34;;;;;;;1.40;1.30;;;22.00;63.10;;;;;;5000237;28;20657;-70
2022/06/14 03:08:19;;;;;;;1.55;1.45;;;22.00;63.10;;;;;;4964284;28;20205;-70
2022/06/14 03:10:58;;;;;;;1.95;1.52;;;21.90;63.00;;;;;;4999928;28;20209;-70
2022/06/14 03:13:55;;;;;;;1.30;1.20;;;21.90;63.80;;;;;;4998775;28;20173;-70
2022/06/14 03:16:33;;;;;;;1.70;1.60;;;21.90;63.10;;;;;;4998958;28;20232;-69
2022/06/14 03:19:19;;;;;;;1.60;1.50;;;21.90;63.00;;;;;;4980359;28;20702;-70
2022/06/14 03:22:05;;;;;;;2.67;1.40;;;21.90;63.10;;;;;;4997097;28;20184;-70
2022/06/14 03:24:47;;;;;;;1.92;1.70;;;21.90;63.00;;;;;;4998720;28;20180;-70
2022/06/14 03:27:45;;;;;;;1.75;1.65;;;21.90;63.00;;;;;;4999653;28;20258;-70
2022/06/14 03:30:37;;;;;;;1.90;1.50;;;21.90;62.90;;;;;;5015612;28;20306;-70
2022/06/14 03:33:21;;;;;;;1.70;1.50;;;21.90;63.00;;;;;;4998555;28;20200;-70
2022/06/14 03:35:51;;;;;;;1.90;1.80;;;21.90;63.00;;;;;;4999610;28;20193;-69
2022/06/14 03:38:44;;;;;;;2.33;2.13;;;21.90;62.90;;;;;;5000808;28;20205;-69
2022/06/14 03:41:19;;;;;;;2.08;1.85;;;21.90;62.90;;;;;;5001106;28;20181;-70
2022/06/14 03:43:46;;;;;;;1.40;1.30;;;21.90;63.00;;;;;;4983948;28;20191;-70
2022/06/14 03:46:37;;;;;;;1.67;1.58;;;21.90;62.90;;;;;;4998927;28;20303;-70
2022/06/14 03:49:15;;;;;;;1.70;1.60;;;21.90;62.90;;;;;;4998925;28;20205;-70
2022/06/14 03:52:00;;;;;;;1.90;1.80;;;21.90;62.90;;;;;;4998408;28;20340;-69
2022/06/14 03:54:34;;;;;;;1.65;1.42;;;21.90;62.90;;;;;;5009602;28;20191;-70
2022/06/14 03:57:43;;;;;;;1.77;1.63;;;21.90;62.90;;;;;;5002535;28;20190;-70
2022/06/14 04:00:49;;;;;;;1.40;1.30;;;21.90;62.90;;;;;;5008856;28;20224;-70
2022/06/14 04:03:50;;;;;;;1.65;1.50;;;21.90;62.90;;;;;;5017712;28;20176;-70
2022/06/14 04:06:37;;;;;;;1.50;1.40;;;21.90;62.90;;;;;;5019680;28;20188;-70
2022/06/14 04:09:39;;;;;;;2.08;1.80;;;21.90;62.90;;;;;;5019494;28;20230;-69
2022/06/14 04:12:39;;;;;;;1.50;1.40;;;21.90;62.90;;;;;;5019939;28;20223;-69
2022/06/14 04:15:43;;;;;;;1.70;1.45;;;21.90;62.90;;;;;;5021659;28;20184;-70
2022/06/14 04:18:38;;;;;;;1.85;1.75;;;21.90;63.00;;;;;;5029781;28;20188;-69
2022/06/14 04:21:32;;;;;;;1.50;1.40;;;21.80;62.80;;;;;;5018143;28;20326;-70
2022/06/14 04:24:17;;;;;;;1.60;1.50;;;21.90;62.90;;;;;;5001172;28;20192;-70
2022/06/14 04:26:57;;;;;;;1.85;1.38;;;21.80;62.80;;;;;;5001908;28;20176;-69
2022/06/14 04:30:09;;;;;;;1.67;1.58;;;21.80;62.80;;;;;;4987477;28;20284;-70
2022/06/14 04:32:57;;;;;;;1.50;1.40;;;21.80;62.80;;;;;;4981011;28;20284;-70
2022/06/14 04:35:40;;;;;;;1.60;1.50;;;21.80;62.80;;;;;;4999115;28;20177;-69
2022/06/14 04:38:44;;;;;;;2.60;1.77;;;21.90;62.90;;;;;;4995244;28;20236;-69
2022/06/14 04:41:39;;;;;;;1.73;1.63;;;21.80;62.90;;;;;;4995461;28;20275;-69
2022/06/14 04:44:08;;;;;;;1.52;1.42;;;21.80;62.80;;;;;;4979804;28;20216;-70
2022/06/14 04:47:04;;;;;;;1.63;1.52;;;21.80;62.80;;;;;;4980229;28;20184;-69
2022/06/14 04:49:50;;;;;;;1.83;1.63;;;21.80;62.90;;;;;;4996163;28;20209;-69
2022/06/14 04:52:22;;;;;;;1.88;1.50;;;21.80;62.80;;;;;;4979357;28;20223;-69
2022/06/14 04:55:14;;;;;;;1.73;1.45;;;21.80;62.80;;;;;;4980593;28;20688;-70
2022/06/14 04:57:53;;;;;;;1.60;1.50;;;21.80;62.80;;;;;;4996820;28;20189;-70
2022/06/14 05:00:31;;;;;;;2.47;1.70;;;21.80;62.80;;;;;;4981097;28;20256;-69
2022/06/14 05:03:22;;;;;;;1.88;1.63;;;21.80;62.90;;;;;;4996662;28;20343;-70
2022/06/14 05:06:06;;;;;;;1.40;1.30;;;21.80;62.80;;;;;;4997090;28;20196;-70
2022/06/14 05:08:39;;;;;;;1.40;1.30;;;21.80;62.80;;;;;;4980714;28;20215;-69
2022/06/14 05:11:23;;;;;;;1.52;1.42;;;21.80;63.60;;;;;;4996981;28;20208;-70
2022/06/14 05:14:02;;;;;;;1.70;1.55;;;21.80;62.90;;;;;;4997754;28;20185;-69
2022/06/14 05:16:55;;;;;;;1.60;1.50;;;21.80;62.80;;;;;;4996807;28;20165;-70
2022/06/14 05:19:58;;;;;;;1.80;1.70;;;21.80;62.90;;;;;;4980847;28;20228;-70
2022/06/14 05:22:43;;;;;;;1.58;1.48;;;21.80;62.90;;;;;;4996474;28;20169;-69
2022/06/14 05:25:11;;;;;;;1.40;1.30;;;21.80;62.80;;;;;;4997281;28;20173;-70
2022/06/14 05:28:07;;;;;;;2.10;1.33;;;21.80;62.90;;;;;;4996165;28;20184;-70
2022/06/14 05:31:29;;;;;;;1.83;1.55;;;21.80;63.00;;;;;;4998680;28;20181;-70
2022/06/14 05:34:27;;;;;;;1.50;1.40;;;21.80;62.90;;;;;;4979708;28;20212;-70
2022/06/14 05:37:24;;;;;;;1.73;1.40;;;21.80;63.00;;;;;;4981497;28;20231;-70
2022/06/14 05:39:59;;;;;;;2.08;1.80;;;21.80;63.00;;;;;;4998793;28;20208;-69
2022/06/14 05:42:37;;;;;;;1.80;1.70;;;21.90;63.00;;;;;;4983772;28;20180;-70
2022/06/14 05:45:04;;;;;;;2.30;2.10;;;21.80;63.00;;;;;;5000526;28;20177;-69
2022/06/14 05:47:41;;;;;;;1.70;1.60;;;21.80;62.90;;;;;;5001088;28;20220;-69
2022/06/14 05:50:16;;;;;;;1.50;1.40;;;21.80;62.90;;;;;;5001084;28;20236;-69
2022/06/14 05:53:02;;;;;;;1.50;1.40;;;21.90;63.10;;;;;;5000687;28;20200;-70
2022/06/14 05:55:51;;;;;;;1.50;1.40;;;21.80;63.00;;;;;;4984229;28;20196;-70
2022/06/14 05:58:42;;;;;;;1.63;1.52;;;21.80;62.90;;;;;;4998894;28;20231;-69
2022/06/14 06:01:20;;;;;;;2.97;2.00;;;21.90;62.90;;;;;;4983155;28;20258;-70
2022/06/14 06:03:56;;;;;;;1.70;1.60;;;21.80;62.90;;;;;;4982281;28;20181;-69
2022/06/14 06:06:31;;;;;;;1.55;1.45;;;21.80;62.80;;;;;;4999369;28;20687;-69
2022/06/14 06:09:20;;;;;;;2.08;1.60;;;21.90;63.00;;;;;;4983363;28;20212;-69
2022/06/14 06:11:57;;;;;;;1.40;1.35;;;21.80;62.80;;;;;;4982069;28;20359;-70
2022/06/14 06:14:40;;;;;;;2.05;1.58;;;21.80;63.00;;;;;;4999402;28;20216;-70
2022/06/14 06:17:28;;;;;;;1.98;1.70;;;21.90;63.00;;;;;;4999848;28;20231;-69
2022/06/14 06:20:26;;;;;;;3.05;1.88;;;21.80;62.80;;;;;;4984744;28;20223;-70
2022/06/14 06:23:06;;;;;;;1.92;1.70;;;21.80;62.80;;;;;;4968266;28;20192;-69
2022/06/14 06:25:40;;;;;;;1.67;1.58;;;21.80;62.80;;;;;;5000312;28;20616;-70
2022/06/14 06:28:21;;;;;;;1.52;1.33;;;21.80;62.90;;;;;;5000598;28;20243;-69
2022/06/14 06:31:05;;;;;;;2.45;1.70;;;21.80;62.80;;;;;;5001301;28;20324;-70
2022/06/14 06:33:37;;;;;;;1.88;1.77;;;21.80;62.80;;;;;;4999234;28;20223;-70
2022/06/14 06:36:33;;;;;;;1.90;1.63;;;21.80;62.80;;;;;;4996367;28;20192;-70
2022/06/14 06:39:21;;;;;;;1.80;1.70;;;21.80;62.80;;;;;;5000295;28;20279;-70
2022/06/14 06:42:00;;;;;;;2.03;1.80;;;21.80;62.80;;;;;;4963256;28;20201;-70
2022/06/14 06:44:55;;;;;;;1.80;1.70;;;21.80;62.80;;;;;;5015891;28;20212;-70
2022/06/14 06:47:31;;;;;;;1.85;1.73;;;21.80;62.80;;;;;;4991178;28;20186;-69
2022/06/14 06:50:15;;;;;;;1.98;1.88;;;21.90;62.90;;;;;;4999541;28;20255;-70
2022/06/14 06:53:15;;;;;;;3.28;1.50;;;21.80;62.80;;;;;;4973656;28;20239;-69
2022/06/14 06:55:53;;;;;;;1.67;1.58;;;21.80;62.80;;;;;;4975341;28;20220;-69
2022/06/14 06:58:26;;;;;;;1.63;1.52;;;21.80;62.80;;;;;;4991727;28;20218;-69
2022/06/14 07:01:00;;;;;;;1.60;1.50;;;21.80;62.90;;;;;;4983089;28;20535;-69
2022/06/14 07:03:44;;;;;;;1.92;1.83;;;21.80;62.80;;;;;;4994262;28;20176;-69
2022/06/14 07:06:30;;;;;;;1.88;1.77;;;21.80;62.80;;;;;;5008323;28;20269;-69
2022/06/14 07:09:13;;;;;;;1.90;1.60;;;21.80;62.80;;;;;;4975838;28;20236;-69
2022/06/14 07:11:51;;;;;;;2.80;2.40;;;21.80;62.80;;;;;;4977721;28;20209;-69
2022/06/14 07:14:35;;;;;;;2.05;1.67;;;21.80;62.80;;;;;;4987086;28;20240;-69
2022/06/14 07:17:17;;;;;;;2.15;1.92;;;21.80;62.80;;;;;;4978532;28;20192;-69
2022/06/14 07:20:06;;;;;;;1.95;1.50;;;21.80;62.50;;;;;;4981029;28;20258;-69
2022/06/14 07:22:51;;;;;;;1.92;1.70;;;21.90;62.40;;;;;;4992808;28;20184;-69
2022/06/14 07:25:28;;;;;;;2.35;1.90;;;21.90;62.70;;;;;;4988303;28;20567;-69
2022/06/14 07:28:19;;;;;;;3.42;2.05;;;21.90;62.50;;;;;;5010732;28;20196;-70
2022/06/14 07:30:58;;;;;;;2.30;2.10;;;21.90;62.30;;;;;;4991897;28;20214;-69
2022/06/14 07:33:28;;;;;;;1.83;1.65;;;21.90;62.10;;;;;;4977120;28;20194;-69
2022/06/14 07:36:02;;;;;;;2.20;1.77;;;21.90;62.00;;;;;;5010375;28;20589;-69
2022/06/14 07:39:10;;;;;;;1.67;1.58;;;21.90;62.20;;;;;;4995081;28;20205;-69
2022/06/14 07:41:58;;;;;;;2.60;1.95;;;21.90;62.00;;;;;;4977890;28;20277;-69
2022/06/14 07:44:51;;;;;;;1.95;1.80;;;22.00;61.80;;;;;;4991403;28;20197;-69
2022/06/14 07:47:34;;;;;;;2.20;2.00;;;21.90;61.70;;;;;;5010106;28;20188;-69
2022/06/14 07:50:25;;;;;;;2.15;1.95;;;22.00;61.40;;;;;;4993316;28;20227;-69
2022/06/14 07:53:12;;;;;;;3.08;1.90;;;22.00;61.70;;;;;;4974254;28;20249;-69
2022/06/14 07:55:49;;;;;;;2.75;2.10;;;22.00;61.30;;;;;;4974878;28;20181;-69
2022/06/14 07:58:40;;;;;;;2.67;2.40;;;22.00;61.30;;;;;;4966310;28;20209;-70
2022/06/14 08:01:34;;;;;;;2.45;1.88;;;22.00;61.00;;;;;;4975535;28;20208;-70
2022/06/14 08:04:15;;;;;;;3.08;1.60;;;22.00;60.80;;;;;;4973662;28;20273;-69
2022/06/14 08:06:46;;;;;;;2.13;1.90;;;22.10;61.70;;;;;;4974615;28;20216;-69
2022/06/14 08:09:25;;;;;;;2.72;1.80;;;22.10;61.00;;;;;;4974321;28;20209;-69
2022/06/14 08:11:53;;;;;;;3.30;2.10;;;22.00;60.80;;;;;;4968103;28;20211;-69
2022/06/14 08:14:39;;;;;;;2.00;1.80;;;22.00;60.90;;;;;;4976785;28;20216;-69
2022/06/14 08:17:10;;;;;;;2.20;2.00;;;22.00;60.80;;;;;;4974499;28;20178;-69
2022/06/14 08:19:55;;;;;;;3.72;1.98;;;22.10;60.50;;;;;;4975805;28;20205;-69
2022/06/14 08:22:33;;;;;;;2.38;1.90;;;22.10;60.30;;;;;;4977078;28;20188;-70
2022/06/14 08:25:08;;;;;;;2.95;1.73;;;22.10;60.40;;;;;;4994991;28;20192;-70
2022/06/14 08:27:47;;;;;;;2.40;1.90;;;22.10;60.20;;;;;;4973927;28;20188;-70
2022/06/14 08:30:39;;;;;;;2.38;2.05;;;22.10;60.30;;;;;;4993245;28;20205;-70
2022/06/14 08:33:16;;;;;;;2.45;1.92;;;22.10;60.30;;;;;;4976591;28;20212;-69
2022/06/14 08:35:52;;;;;;;2.67;2.08;;;22.10;60.20;;;;;;4977414;28;20255;-70
2022/06/14 08:38:30;;;;;;;2.65;2.10;;;22.10;60.00;;;;;;4993467;28;20235;-69
2022/06/14 08:41:23;;;;;;;2.15;1.95;;;22.20;60.10;;;;;;4992940;28;20177;-69
2022/06/14 08:44:39;;;;;;;4.28;2.17;;;22.10;59.80;;;;;;4992569;28;20177;-69
2022/06/14 08:47:37;;;;;;;4.82;2.13;;;22.20;60.00;;;;;;4921412;29;20194;-69
2022/06/14 08:50:21;;;;;;;2.85;1.98;;;22.20;60.00;;;;;;4993337;28;20208;-69
2022/06/14 08:53:06;;;;;;;2.10;1.75;;;22.20;60.00;;;;;;4992849;28;20224;-69
2022/06/14 08:56:16;;;;;;;2.47;1.90;;;22.20;59.80;;;;;;4993684;28;20177;-69
2022/06/14 08:59:04;;;;;;;3.35;2.10;;;22.30;60.00;;;;;;4976417;28;20255;-70
2022/06/14 09:02:24;;;;;;;2.38;2.17;;;22.30;60.00;;;;;;4976603;28;20275;-70
2022/06/14 09:05:12;;;;;;;2.53;2.10;;;22.30;59.90;;;;;;4993069;28;20239;-70
2022/06/14 09:08:15;;;;;;;2.53;1.90;;;22.30;59.80;;;;;;4976090;28;20185;-69
2022/06/14 09:11:22;;;;;;;2.35;2.15;;;22.30;59.80;;;;;;4993920;28;20180;-69
2022/06/14 09:14:49;;;;;;;2.28;1.85;;;22.30;60.60;;;;;;4992262;28;20196;-69
2022/06/14 09:18:10;;;;;;;2.88;2.10;;;22.30;59.80;;;;;;4987666;28;20224;-69
2022/06/14 09:21:16;;;;;;;2.50;2.05;;;22.30;60.00;;;;;;4990389;28;20223;-69
2022/06/14 09:24:21;;;;;;;2.13;1.92;;;22.30;59.80;;;;;;4975606;28;20176;-69
2022/06/14 09:27:07;;;;;;;2.30;1.80;;;22.30;59.80;;;;;;4992171;28;20173;-69
2022/06/14 09:30:01;;;;;;;2.40;2.20;;;22.30;59.90;;;;;;4976243;28;20212;-69
2022/06/14 09:33:09;;;;;;;3.28;2.25;;;22.30;60.60;;;;;;4991839;28;20208;-69
2022/06/14 09:35:39;;;;;;;3.83;2.13;;;22.30;59.90;;;;;;4993337;28;20188;-69
2022/06/14 09:38:36;;;;;;;2.40;2.20;;;22.30;60.10;;;;;;4991966;28;20173;-69
2022/06/14 09:41:23;;;;;;;2.50;2.20;;;22.30;60.00;;;;;;4992376;28;20181;-69
2022/06/14 09:44:01;;;;;;;2.53;2.00;;;22.30;60.00;;;;;;4975177;28;20185;-69
2022/06/14 09:46:49;;;;;;;2.90;1.90;;;22.30;60.00;;;;;;4976077;28;20195;-69
2022/06/14 09:50:12;;;;;;;2.53;2.30;;;22.30;59.90;;;;;;4975624;28;20235;-69
2022/06/14 09:53:27;;;;;;;2.33;1.95;;;22.30;60.10;;;;;;4919426;29;20348;-70
2022/06/14 09:56:23;;;;;;;2.42;1.70;;;22.30;60.10;;;;;;4991829;28;20189;-69
2022/06/14 09:59:26;;;;;;;3.35;2.10;;;22.30;59.80;;;;;;4975385;28;20266;-69
2022/06/14 10:02:37;;;;;;;2.65;1.90;;;22.30;60.10;;;;;;4974956;28;20183;-68
2022/06/14 10:05:40;;;;;;;2.40;2.17;;;22.30;60.10;;;;;;4975647;28;20243;-69
2022/06/14 10:08:31;;;;;;;2.92;2.13;;;22.30;60.10;;;;;;4975365;28;20646;-69
2022/06/14 10:11:18;;;;;;;3.78;2.17;;;22.30;60.20;;;;;;4991779;28;20188;-70
2022/06/14 10:14:10;;;;;;;2.97;2.40;;;22.30;60.10;;;;;;4991207;28;20177;-70
2022/06/14 10:16:47;;;;;;;3.15;1.90;;;22.30;60.10;;;;;;4991822;28;20565;-69
2022/06/14 10:19:44;;;;;;;2.28;2.15;;;22.30;60.00;;;;;;4991511;28;20232;-69
2022/06/14 10:22:52;;;;;;;2.80;2.25;;;22.30;60.00;;;;;;4990918;28;20197;-69
2022/06/14 10:29:02;;;;;;;2.25;2.05;;;22.30;60.00;;;;;;4994687;28;20223;-69
2022/06/14 10:31:57;;;;;;;2.50;1.98;;;22.30;59.90;;;;;;4995765;28;20219;-69
2022/06/14 10:35:10;;;;;;;11.35;2.67;;;22.40;60.10;;;;;;4994767;28;20232;-69
2022/06/14 10:38:12;;;;;;;10.07;2.45;;;22.40;60.20;;;;;;4995027;28;20311;-69
2022/06/14 10:40:49;;;;;;;8.55;2.47;;;22.40;60.00;;;;;;4994820;28;20211;-69
2022/06/14 10:43:43;;;;;;;8.00;2.50;;;22.40;60.10;;;;;;4994415;28;20212;-69
2022/06/14 10:46:24;;;;;;;14.05;2.72;;;22.40;60.20;;;;;;4994325;28;20185;-69
2022/06/14 10:49:14;;;;;;;4.82;2.55;;;22.40;60.00;;;;;;4994481;28;20684;-69
2022/06/14 10:52:04;;;;;;;6.95;2.60;;;22.40;60.00;;;;;;4978271;28;20224;-69
2022/06/14 10:54:54;;;;;;;7.50;2.25;;;22.40;60.00;;;;;;4994845;28;20193;-69
2022/06/14 10:57:47;;;;;;;11.27;2.60;;;22.40;60.10;;;;;;4995941;28;20179;-69
2022/06/14 11:01:09;;;;;;;8.38;2.63;;;22.40;60.20;;;;;;4995538;28;20209;-69
2022/06/14 11:03:44;;;;;;;6.82;2.72;;;22.40;59.90;;;;;;4922179;29;20222;-69
2022/06/14 11:06:41;;;;;;;3.45;2.33;;;22.40;60.00;;;;;;4994244;28;20208;-69
2022/06/14 11:09:42;;;;;;;4.57;2.33;;;22.40;60.00;;;;;;4995423;28;20223;-69
2022/06/14 11:12:42;;;;;;;3.80;2.10;;;22.40;59.90;;;;;;4977345;28;20282;-69
2022/06/14 11:15:47;;;;;;;4.57;2.40;;;22.40;59.80;;;;;;4994265;28;20191;-69
2022/06/14 11:18:24;;;;;;;2.17;1.98;;;22.40;59.90;;;;;;4986229;28;20235;-69
2022/06/14 11:21:16;;;;;;;4.65;2.38;;;22.40;59.90;;;;;;4977854;28;20235;-69
2022/06/14 11:24:01;;;;;;;3.45;2.30;;;22.40;59.90;;;;;;4977177;28;20189;-69
2022/06/14 11:27:14;;;;;;;2.85;2.20;;;22.40;60.00;;;;;;4995177;28;20181;-68
2022/06/14 11:30:30;;;;;;;4.25;2.30;;;22.40;59.90;;;;;;4977852;28;20303;-69
2022/06/14 11:33:24;;;;;;;5.68;2.13;;;22.40;59.90;;;;;;4993138;28;20221;-69
2022/06/14 11:36:27;;;;;;;5.15;2.20;;;22.40;59.90;;;;;;4993934;28;20188;-69
2022/06/14 11:39:32;;;;;;;4.60;2.00;;;22.40;60.70;;;;;;4953128;28;20220;-69
2022/06/14 11:42:06;;;;;;;3.80;2.08;;;22.40;59.80;;;;;;4993776;28;20193;-69
2022/06/14 11:45:34;;;;;;;4.05;2.30;;;22.40;59.90;;;;;;4993711;28;20273;-69
2022/06/14 11:48:24;;;;;;;2.85;1.90;;;22.40;59.90;;;;;;4992990;28;20227;-69
2022/06/14 11:51:23;;;;;;;4.40;2.53;;;22.40;59.50;;;;;;4993286;28;20401;-69
2022/06/14 11:54:19;;;;;;;9.20;2.58;;;22.40;59.60;;;;;;4977284;28;20177;-69
2022/06/14 11:57:04;;;;;;;4.68;2.00;;;22.40;59.70;;;;;;4977464;28;20199;-69
2022/06/14 11:59:29;;;;;;;2.95;2.10;;;22.40;59.70;;;;;;4977018;28;20216;-69
2022/06/14 12:02:29;;;;;;;2.53;2.33;;;22.40;59.80;;;;;;4993606;28;20188;-69
2022/06/14 12:05:40;;;;;;;4.25;2.00;;;22.40;59.70;;;;;;4993549;28;20172;-69
2022/06/14 12:09:01;;;;;;;2.17;1.98;;;22.40;59.80;;;;;;4976934;28;20189;-69
2022/06/14 12:11:34;;;;;;;3.58;2.38;;;22.40;59.80;;;;;;4975294;28;20225;-69
2022/06/14 12:14:44;;;;;;;3.35;2.30;;;22.40;59.60;;;;;;4992546;28;20192;-69
2022/06/14 12:17:45;;;;;;;2.83;2.30;;;22.40;59.50;;;;;;4994074;28;20177;-69
2022/06/14 12:20:20;;;;;;;3.45;2.00;;;22.40;59.50;;;;;;4993007;28;20287;-69
2022/06/14 12:23:16;;;;;;;3.92;1.95;;;22.40;59.60;;;;;;4993561;28;20211;-68
2022/06/14 12:29:26;;;;;;;3.63;2.05;;;22.40;59.50;;;;;;4992827;28;20354;-69
2022/06/14 12:32:14;;;;;;;3.90;2.33;;;22.40;59.40;;;;;;4979849;28;20221;-68
2022/06/14 12:35:03;;;;;;;2.72;2.08;;;22.40;59.50;;;;;;4973239;28;20620;-69
2022/06/14 12:38:09;;;;;;;2.42;1.88;;;22.40;59.50;;;;;;4973468;28;20166;-69
2022/06/14 12:40:43;;;;;;;2.35;2.13;;;22.40;59.50;;;;;;4974406;28;20169;-69
2022/06/14 12:43:20;;;;;;;2.20;2.00;;;22.40;59.30;;;;;;4956656;28;20182;-70
2022/06/14 12:46:02;;;;;;;3.33;2.30;;;22.40;59.50;;;;;;4992407;28;20211;-69
2022/06/14 12:48:43;;;;;;;2.13;1.92;;;22.50;59.40;;;;;;4992641;28;20223;-69
2022/06/14 12:51:28;;;;;;;2.92;2.10;;;22.50;59.50;;;;;;4993576;28;20192;-69
2022/06/14 12:54:32;;;;;;;2.33;2.13;;;22.40;59.40;;;;;;4975533;28;20191;-69
2022/06/14 12:57:34;;;;;;;3.20;2.00;;;22.40;59.50;;;;;;4976095;28;20651;-69
2022/06/14 13:00:07;;;;;;;2.83;2.10;;;22.40;59.50;;;;;;4991981;28;20212;-69
2022/06/14 13:02:48;;;;;;;2.88;2.40;;;22.40;59.20;;;;;;4991709;28;20201;-69
2022/06/14 13:05:22;;;;;;;2.55;2.25;;;22.50;59.40;;;;;;4992631;28;20173;-68
2022/06/14 13:08:31;;;;;;;4.03;2.22;;;22.40;59.10;;;;;;4976211;28;20268;-69
2022/06/14 13:11:14;;;;;;;2.33;2.03;;;22.50;59.30;;;;;;4992374;28;20185;-68
2022/06/14 13:14:15;;;;;;;2.10;1.90;;;22.40;59.20;;;;;;4991591;28;20594;-69
2022/06/14 13:17:07;;;;;;;2.92;2.17;;;22.40;59.20;;;;;;4993131;28;20185;-69
2022/06/14 13:19:56;;;;;;;2.30;2.10;;;22.40;59.50;;;;;;4975791;28;20204;-69
2022/06/14 13:22:49;;;;;;;2.20;2.05;;;22.50;59.60;;;;;;4991394;28;20634;-68
2022/06/14 13:25:40;;;;;;;2.42;2.22;;;22.40;59.80;;;;;;4992029;28;20181;-69
2022/06/14 13:28:22;;;;;;;2.13;1.95;;;22.40;59.50;;;;;;4992130;28;20188;-69
2022/06/14 13:31:20;;;;;;;2.58;2.13;;;22.50;59.60;;;;;;4991858;28;20184;-69
2022/06/14 13:34:25;;;;;;;2.47;2.20;;;22.50;59.60;;;;;;4991242;28;20211;-69
2022/06/14 13:37:30;;;;;;;2.33;2.10;;;22.50;59.70;;;;;;4992065;28;20180;-69
2022/06/14 13:40:12;;;;;;;3.75;2.00;;;22.50;59.60;;;;;;4991902;28;20209;-69
2022/06/14 13:42:53;;;;;;;3.17;2.00;;;22.50;59.50;;;;;;4992704;28;20223;-69
2022/06/14 13:45:45;;;;;;;2.40;2.17;;;22.50;59.60;;;;;;4992093;28;20181;-69
2022/06/14 13:48:24;;;;;;;2.28;1.90;;;22.40;59.70;;;;;;4975537;28;20247;-69
2022/06/14 13:51:03;;;;;;;2.45;1.85;;;22.50;59.60;;;;;;4991962;28;20195;-68
2022/06/14 13:54:00;;;;;;;2.47;2.10;;;22.50;59.30;;;;;;4991157;28;20173;-69
2022/06/14 13:56:46;;;;;;;2.75;2.40;;;22.50;59.70;;;;;;4972001;28;20229;-69
2022/06/14 13:59:24;;;;;;;2.20;1.90;;;22.50;59.70;;;;;;4971768;28;20209;-68
2022/06/14 14:02:25;;;;;;;1.90;1.80;;;22.50;59.60;;;;;;4981802;28;20185;-69
2022/06/14 14:05:27;;;;;;;2.97;2.20;;;22.50;59.70;;;;;;4995631;28;20168;-69
2022/06/14 14:08:23;;;;;;;2.22;2.03;;;22.50;59.40;;;;;;4995137;28;20203;-69
2022/06/14 14:11:19;;;;;;;2.40;2.10;;;22.50;59.60;;;;;;4995501;28;20239;-69
2022/06/14 14:14:06;;;;;;;2.45;2.00;;;22.50;59.40;;;;;;4978489;28;20227;-69
2022/06/14 14:16:50;;;;;;;2.55;2.20;;;22.50;59.60;;;;;;4995205;28;20181;-69
2022/06/14 14:19:37;;;;;;;2.40;2.20;;;22.50;59.50;;;;;;4995400;28;20209;-68
2022/06/14 14:22:13;;;;;;;2.75;2.10;;;22.50;59.70;;;;;;4996683;28;20169;-69
2022/06/14 14:25:13;;;;;;;2.25;2.08;;;22.50;59.50;;;;;;4995775;28;20625;-69
2022/06/14 14:27:53;;;;;;;2.10;2.00;;;22.50;59.60;;;;;;4995135;28;20181;-69
2022/06/14 14:30:25;;;;;;;3.20;1.95;;;22.50;59.70;;;;;;4978580;28;20220;-68
2022/06/14 14:33:15;;;;;;;2.58;2.00;;;22.50;59.40;;;;;;4995439;28;20258;-69
2022/06/14 14:35:53;;;;;;;2.50;2.13;;;22.50;59.40;;;;;;4978580;28;20180;-69
2022/06/14 14:38:44;;;;;;;1.80;1.70;;;22.50;59.20;;;;;;4994724;28;20205;-69